createdAt,value
2017-07-06T00:01:07.927Z,23.40
2017-07-06T00:03:35.436Z,23.40
2017-07-06T00:06:02.868Z,23.30
2017-07-06T00:08:30.421Z,23.30
2017-07-06T00:10:58.079Z,23.30
2017-07-06T00:13:25.543Z,23.30
2017-07-06T00:15:53.093Z,23.20
2017-07-06T00:18:20.541Z,23.30
2017-07-06T00:20:47.990Z,23.20
2017-07-06T00:23:15.460Z,23.20
2017-07-06T00:25:43.230Z,23.10
2017-07-06T00:28:10.678Z,23.00
2017-07-06T00:30:38.131Z,23.10
2017-07-06T00:33:05.564Z,23.10
2017-07-06T00:35:33.661Z,23.00
2017-07-06T00:38:01.197Z,22.90
2017-07-06T00:40:28.734Z,22.90
2017-07-06T00:42:56.328Z,22.90
2017-07-06T00:45:23.749Z,22.90
2017-07-06T00:47:51.253Z,22.80
2017-07-06T00:50:18.707Z,22.80
2017-07-06T00:52:46.178Z,22.80
2017-07-06T00:55:13.929Z,22.70
2017-07-06T00:57:41.387Z,22.70
2017-07-06T01:00:08.832Z,22.70
2017-07-06T01:02:36.253Z,22.70
2017-07-06T01:05:03.674Z,22.60
2017-07-06T01:07:31.097Z,22.60
2017-07-06T01:09:58.657Z,22.50
2017-07-06T01:12:26.424Z,22.50
2017-07-06T01:14:53.873Z,22.50
2017-07-06T01:17:21.293Z,22.50
2017-07-06T01:19:48.742Z,22.50
2017-07-06T01:22:16.191Z,22.40
2017-07-06T01:24:43.697Z,22.40
2017-07-06T01:27:11.132Z,22.30
2017-07-06T01:29:38.561Z,22.30
2017-07-06T01:32:06.011Z,22.20
2017-07-06T01:34:33.536Z,22.20
2017-07-06T01:37:00.983Z,22.10
2017-07-06T01:39:28.433Z,22.10
2017-07-06T01:41:55.894Z,22.00
2017-07-06T01:44:23.349Z,21.90
2017-07-06T01:46:50.806Z,21.90
2017-07-06T01:49:18.270Z,21.80
2017-07-06T01:51:45.718Z,21.70
2017-07-06T01:54:13.179Z,21.60
2017-07-06T01:56:40.612Z,21.60
2017-07-06T01:59:08.090Z,21.60
2017-07-06T02:01:35.616Z,21.50
2017-07-06T02:04:03.404Z,21.40
2017-07-06T02:06:31.264Z,21.40
2017-07-06T02:08:58.683Z,21.30
2017-07-06T02:11:26.897Z,21.30
2017-07-06T02:13:54.998Z,21.30
2017-07-06T02:16:22.406Z,21.30
2017-07-06T02:18:49.881Z,21.20
2017-07-06T02:21:17.321Z,21.20
2017-07-06T02:23:44.793Z,21.10
2017-07-06T02:26:12.254Z,21.10
2017-07-06T02:28:39.686Z,21.00
2017-07-06T02:31:07.118Z,21.00
2017-07-06T02:33:34.538Z,21.00
2017-07-06T02:36:01.980Z,20.90
2017-07-06T02:38:29.546Z,21.00
2017-07-06T02:40:57.304Z,20.90
2017-07-06T02:43:24.932Z,20.90
2017-07-06T02:45:52.528Z,20.90
2017-07-06T02:48:19.959Z,20.90
2017-07-06T02:50:47.393Z,20.80
2017-07-06T02:53:14.890Z,20.80
2017-07-06T02:55:42.645Z,20.70
2017-07-06T02:58:10.421Z,20.70
2017-07-06T03:00:37.873Z,20.70
2017-07-06T03:03:05.333Z,20.70
2017-07-06T03:05:32.785Z,20.80
2017-07-06T03:08:00.242Z,20.90
2017-07-06T03:10:27.702Z,20.90
2017-07-06T03:12:55.663Z,20.80
2017-07-06T03:15:23.235Z,20.80
2017-07-06T03:17:50.693Z,20.60
2017-07-06T03:20:18.138Z,20.50
2017-07-06T03:22:45.569Z,20.50
2017-07-06T03:25:13.075Z,20.40
2017-07-06T03:27:40.825Z,20.30
2017-07-06T03:30:08.553Z,20.20
2017-07-06T03:32:35.973Z,20.20
2017-07-06T03:35:03.501Z,20.00
2017-07-06T03:37:30.945Z,19.90
2017-07-06T03:39:58.710Z,19.80
2017-07-06T03:42:26.474Z,19.70
2017-07-06T03:44:54.854Z,19.70
2017-07-06T03:47:22.311Z,19.70
2017-07-06T03:49:49.937Z,19.70
2017-07-06T03:52:17.394Z,19.70
2017-07-06T03:54:45.170Z,19.70
2017-07-06T03:57:12.614Z,19.60
2017-07-06T03:59:40.195Z,19.60
2017-07-06T04:02:07.648Z,19.60
2017-07-06T04:04:35.091Z,19.50
2017-07-06T04:07:02.535Z,19.60
2017-07-06T04:09:30.026Z,19.60
2017-07-06T04:11:57.673Z,19.50
2017-07-06T04:14:25.111Z,19.50
2017-07-06T04:16:52.556Z,19.60
2017-07-06T04:19:20.201Z,19.50
2017-07-06T04:21:47.925Z,19.50
2017-07-06T04:24:15.363Z,19.50
2017-07-06T04:26:42.814Z,19.50
2017-07-06T04:29:10.288Z,19.50
2017-07-06T04:31:37.935Z,19.50
2017-07-06T04:34:05.507Z,19.50
2017-07-06T04:36:33.270Z,19.50
2017-07-06T04:39:01.025Z,19.50
2017-07-06T04:41:28.453Z,19.50
2017-07-06T04:43:55.942Z,19.60
2017-07-06T04:46:23.378Z,19.60
2017-07-06T04:48:50.866Z,19.60
2017-07-06T04:51:18.528Z,19.70
2017-07-06T04:53:45.973Z,19.80
2017-07-06T04:56:13.530Z,19.90
2017-07-06T04:58:40.974Z,19.90
2017-07-06T05:01:08.443Z,20.00
2017-07-06T05:03:35.893Z,20.10
2017-07-06T05:06:03.333Z,20.20
2017-07-06T05:08:30.805Z,20.30
2017-07-06T05:10:58.241Z,20.40
2017-07-06T05:13:25.733Z,20.50
2017-07-06T05:15:53.200Z,20.60
2017-07-06T05:18:20.617Z,20.60
2017-07-06T05:20:48.096Z,20.70
2017-07-06T05:23:15.534Z,20.80
2017-07-06T05:25:43.326Z,20.90
2017-07-06T05:28:10.761Z,20.90
2017-07-06T05:30:38.222Z,21.00
2017-07-06T05:33:05.669Z,21.10
2017-07-06T05:35:33.140Z,21.20
2017-07-06T05:38:00.683Z,21.30
2017-07-06T05:40:28.360Z,21.30
2017-07-06T05:42:55.910Z,21.40
2017-07-06T05:45:23.501Z,21.50
2017-07-06T05:47:51.025Z,21.60
2017-07-06T05:50:18.466Z,21.70
2017-07-06T05:52:45.959Z,21.70
2017-07-06T05:55:13.605Z,21.70
2017-07-06T05:57:41.166Z,21.80
2017-07-06T06:00:08.623Z,21.90
2017-07-06T06:02:36.084Z,22.00
2017-07-06T06:05:03.545Z,22.10
2017-07-06T06:07:30.993Z,22.10
2017-07-06T06:09:58.439Z,22.20
2017-07-06T06:12:25.896Z,22.30
2017-07-06T06:14:53.318Z,22.30
2017-07-06T06:17:20.756Z,22.40
2017-07-06T06:19:48.274Z,22.50
2017-07-06T06:22:16.038Z,22.60
2017-07-06T06:24:43.688Z,22.60
2017-07-06T06:27:11.169Z,22.70
2017-07-06T06:29:38.641Z,22.80
2017-07-06T06:32:06.093Z,22.80
2017-07-06T06:34:33.553Z,22.90
2017-07-06T06:37:00.980Z,23.00
2017-07-06T06:39:28.421Z,23.10
2017-07-06T06:41:56.187Z,23.20
2017-07-06T06:44:23.678Z,23.20
2017-07-06T06:46:51.220Z,23.30
2017-07-06T06:49:18.998Z,23.40
2017-07-06T06:51:46.430Z,23.40
2017-07-06T06:54:14.043Z,23.50
2017-07-06T06:56:42.232Z,23.50
2017-07-06T06:59:09.722Z,23.50
2017-07-06T07:01:37.371Z,23.60
2017-07-06T07:04:04.802Z,23.70
2017-07-06T07:06:32.401Z,23.70
2017-07-06T07:08:59.838Z,23.80
2017-07-06T07:11:27.309Z,23.90
2017-07-06T07:13:54.766Z,24.00
2017-07-06T07:16:22.311Z,24.00
2017-07-06T07:18:49.990Z,24.10
2017-07-06T07:21:17.426Z,24.10
2017-07-06T07:23:44.861Z,24.20
2017-07-06T07:26:12.322Z,24.20
2017-07-06T07:28:39.814Z,24.30
2017-07-06T07:31:07.253Z,24.40
2017-07-06T07:33:34.722Z,24.40
2017-07-06T07:36:02.790Z,24.50
2017-07-06T07:38:30.223Z,24.50
2017-07-06T07:40:57.662Z,24.50
2017-07-06T07:43:25.160Z,24.50
2017-07-06T07:45:52.616Z,24.50
2017-07-06T07:48:20.054Z,24.60
2017-07-06T07:50:47.506Z,24.80
2017-07-06T07:53:14.939Z,24.90
2017-07-06T07:55:42.390Z,25.00
2017-07-06T07:58:09.823Z,25.00
2017-07-06T08:00:38.448Z,25.10
2017-07-06T08:03:06.195Z,25.20
2017-07-06T08:05:33.676Z,25.20
2017-07-06T08:08:01.132Z,25.10
2017-07-06T08:10:28.721Z,25.40
2017-07-06T08:12:56.482Z,25.50
2017-07-06T08:15:23.941Z,25.60
2017-07-06T08:17:51.409Z,25.60
2017-07-06T08:20:18.845Z,25.60
2017-07-06T08:22:46.292Z,25.70
2017-07-06T08:25:13.743Z,25.80
2017-07-06T08:27:41.185Z,25.90
2017-07-06T08:30:08.672Z,25.90
2017-07-06T08:32:36.737Z,26.00
2017-07-06T08:35:04.197Z,26.00
2017-07-06T08:37:31.983Z,26.00
2017-07-06T08:39:59.424Z,26.10
2017-07-06T08:42:27.186Z,26.20
2017-07-06T08:44:54.642Z,26.30
2017-07-06T08:47:22.088Z,26.40
2017-07-06T08:49:49.558Z,26.40
2017-07-06T08:52:17.322Z,26.50
2017-07-06T08:54:45.085Z,26.50
2017-07-06T08:57:12.854Z,26.60
2017-07-06T08:59:40.612Z,26.60
2017-07-06T09:02:08.368Z,26.70
2017-07-06T09:04:35.829Z,26.70
2017-07-06T09:07:03.295Z,26.80
2017-07-06T09:09:31.055Z,26.90
2017-07-06T09:11:58.522Z,26.90
2017-07-06T09:14:26.062Z,27.00
2017-07-06T09:16:53.711Z,27.10
2017-07-06T09:19:21.187Z,27.20
2017-07-06T09:21:48.924Z,27.30
2017-07-06T09:24:16.406Z,27.40
2017-07-06T09:26:44.161Z,27.40
2017-07-06T09:29:11.615Z,27.50
2017-07-06T09:31:39.158Z,27.60
2017-07-06T09:34:06.844Z,27.70
2017-07-06T09:36:34.314Z,27.80
2017-07-06T09:39:01.733Z,27.80
2017-07-06T09:41:29.218Z,27.90
2017-07-06T09:43:56.683Z,28.00
2017-07-06T09:46:24.123Z,28.10
2017-07-06T09:48:51.590Z,28.20
2017-07-06T09:51:19.169Z,28.30
2017-07-06T09:53:47.403Z,28.50
2017-07-06T09:56:14.860Z,28.50
2017-07-06T09:58:42.493Z,28.60
2017-07-06T10:01:10.073Z,28.70
2017-07-06T10:03:37.513Z,28.80
2017-07-06T10:06:04.933Z,28.80
2017-07-06T10:08:32.372Z,28.90
2017-07-06T10:10:59.805Z,29.00
2017-07-06T10:13:27.385Z,29.10
2017-07-06T10:15:54.820Z,29.20
2017-07-06T10:18:22.793Z,29.30
2017-07-06T10:20:50.357Z,29.40
2017-07-06T10:23:17.788Z,29.40
2017-07-06T10:25:45.255Z,29.40
2017-07-06T10:28:12.903Z,29.50
2017-07-06T10:30:40.467Z,29.60
2017-07-06T10:33:07.927Z,29.70
2017-07-06T10:35:35.691Z,29.80
2017-07-06T10:38:03.109Z,29.90
2017-07-06T10:40:30.554Z,30.00
2017-07-06T10:42:57.989Z,30.10
2017-07-06T10:45:25.685Z,30.20
2017-07-06T10:47:53.899Z,30.40
2017-07-06T10:50:21.524Z,30.40
2017-07-06T10:52:49.001Z,30.50
2017-07-06T10:55:16.497Z,30.50
2017-07-06T10:57:43.938Z,30.60
2017-07-06T11:00:12.577Z,30.70
2017-07-06T11:02:40.068Z,30.60
2017-07-06T11:05:07.505Z,30.60
2017-07-06T11:07:34.949Z,30.80
2017-07-06T11:10:02.534Z,31.00
2017-07-06T11:12:29.961Z,31.10
2017-07-06T11:14:57.393Z,31.20
2017-07-06T11:17:24.835Z,31.40
2017-07-06T11:19:52.258Z,31.50
2017-07-06T11:22:20.124Z,31.60
2017-07-06T11:24:47.887Z,31.70
2017-07-06T11:27:15.649Z,31.70
2017-07-06T11:29:43.727Z,31.90
2017-07-06T11:32:11.185Z,32.00
2017-07-06T11:34:38.614Z,32.10
2017-07-06T11:37:06.381Z,32.30
2017-07-06T11:39:33.854Z,32.40
2017-07-06T11:42:01.313Z,32.40
2017-07-06T11:44:28.762Z,32.40
2017-07-06T11:46:56.207Z,32.50
2017-07-06T11:49:23.677Z,32.60
2017-07-06T11:51:51.129Z,32.60
2017-07-06T11:54:18.594Z,32.90
2017-07-06T11:56:46.053Z,33.00
2017-07-06T11:59:13.495Z,33.30
2017-07-06T12:01:40.954Z,33.50
2017-07-06T12:04:08.717Z,33.60
2017-07-06T12:06:36.388Z,33.80
2017-07-06T12:09:03.815Z,33.90
2017-07-06T12:11:31.417Z,34.00
2017-07-06T12:13:59.052Z,34.10
2017-07-06T12:16:26.618Z,34.10
2017-07-06T12:18:54.089Z,34.10
2017-07-06T12:21:21.534Z,33.90
2017-07-06T12:23:49.174Z,33.90
2017-07-06T12:26:16.761Z,33.80
2017-07-06T12:28:44.369Z,33.80
2017-07-06T12:31:11.883Z,33.50
2017-07-06T12:33:39.330Z,33.60
2017-07-06T12:36:06.897Z,33.50
2017-07-06T12:38:34.337Z,33.50
2017-07-06T12:41:01.786Z,33.40
2017-07-06T12:43:29.214Z,33.30
2017-07-06T12:45:56.656Z,33.20
2017-07-06T12:48:24.081Z,33.30
2017-07-06T12:50:51.621Z,33.50
2017-07-06T12:53:19.383Z,33.80
2017-07-06T12:55:47.149Z,34.10
2017-07-06T12:58:14.596Z,34.10
2017-07-06T13:00:42.370Z,34.70
2017-07-06T13:03:09.793Z,35.30
2017-07-06T13:05:37.282Z,35.80
2017-07-06T13:08:04.734Z,36.20
2017-07-06T13:10:32.505Z,36.80
2017-07-06T13:12:59.949Z,36.60
2017-07-06T13:15:27.400Z,36.60
2017-07-06T13:17:54.862Z,36.70
2017-07-06T13:20:22.328Z,37.10
2017-07-06T13:22:50.009Z,37.30
2017-07-06T13:25:17.473Z,37.30
2017-07-06T13:27:45.138Z,37.30
2017-07-06T13:30:13.554Z,37.00
2017-07-06T13:32:41.141Z,37.00
2017-07-06T13:35:08.893Z,37.50
2017-07-06T13:37:36.329Z,37.40
2017-07-06T13:40:03.756Z,37.20
2017-07-06T13:42:31.237Z,37.40
2017-07-06T13:44:58.722Z,37.70
2017-07-06T13:47:26.163Z,37.90
2017-07-06T13:49:53.591Z,37.60
2017-07-06T13:52:21.043Z,37.60
2017-07-06T13:54:48.453Z,37.40
2017-07-06T13:57:16.006Z,37.20
2017-07-06T13:59:43.452Z,37.30
2017-07-06T14:02:10.873Z,36.90
2017-07-06T14:04:38.366Z,36.50
2017-07-06T14:07:06.136Z,36.10
2017-07-06T14:09:33.608Z,36.00
2017-07-06T14:12:01.240Z,35.90
2017-07-06T14:14:29.114Z,35.90
2017-07-06T14:16:56.569Z,36.00
2017-07-06T14:19:23.980Z,35.90
2017-07-06T14:21:51.420Z,35.60
2017-07-06T14:24:18.852Z,35.30
2017-07-06T14:26:46.392Z,35.10
2017-07-06T14:29:13.862Z,34.90
2017-07-06T14:31:41.483Z,35.00
2017-07-06T14:34:09.006Z,34.80
2017-07-06T14:36:36.445Z,34.90
2017-07-06T14:39:03.873Z,35.20
2017-07-06T14:41:31.352Z,35.40
2017-07-06T14:43:58.785Z,35.50
2017-07-06T14:46:26.301Z,35.70
2017-07-06T14:48:53.726Z,35.50
2017-07-06T14:51:21.462Z,35.20
2017-07-06T14:53:48.920Z,35.30
2017-07-06T14:56:16.393Z,35.40
2017-07-06T14:58:43.866Z,35.40
2017-07-06T15:01:11.395Z,35.30
2017-07-06T15:03:38.865Z,35.30
2017-07-06T15:06:06.318Z,35.20
2017-07-06T15:08:33.733Z,35.20
2017-07-06T15:11:01.222Z,35.10
2017-07-06T15:13:28.683Z,35.10
2017-07-06T15:15:56.303Z,35.00
2017-07-06T15:18:23.749Z,35.00
2017-07-06T15:20:51.219Z,34.90
2017-07-06T15:23:18.749Z,34.80
2017-07-06T15:25:46.190Z,34.60
2017-07-06T15:28:13.795Z,34.60
2017-07-06T15:30:41.225Z,34.60
2017-07-06T15:33:08.947Z,34.50
2017-07-06T15:35:36.369Z,34.20
2017-07-06T15:38:04.359Z,34.10
2017-07-06T15:40:31.806Z,34.30
2017-07-06T15:42:59.377Z,34.40
2017-07-06T15:45:27.034Z,34.40
2017-07-06T15:47:54.534Z,34.30
2017-07-06T15:50:22.082Z,34.30
2017-07-06T15:52:49.522Z,34.30
2017-07-06T15:55:17.270Z,34.30
2017-07-06T15:57:44.814Z,34.40
2017-07-06T16:00:12.492Z,34.20
2017-07-06T16:02:39.940Z,34.10
2017-07-06T16:05:07.405Z,34.10
2017-07-06T16:07:34.861Z,34.00
2017-07-06T16:10:02.333Z,33.80
2017-07-06T16:12:30.073Z,33.80
2017-07-06T16:14:58.097Z,33.70
2017-07-06T16:17:25.530Z,33.80
2017-07-06T16:19:53.071Z,33.90
2017-07-06T16:22:20.712Z,34.20
2017-07-06T16:24:48.132Z,34.30
2017-07-06T16:27:16.350Z,34.10
2017-07-06T16:29:44.120Z,34.10
2017-07-06T16:32:11.554Z,34.10
2017-07-06T16:34:38.981Z,33.90
2017-07-06T16:37:06.425Z,34.10
2017-07-06T16:39:33.845Z,34.10
2017-07-06T16:42:01.289Z,34.10
2017-07-06T16:44:28.739Z,34.20
2017-07-06T16:46:56.920Z,34.00
2017-07-06T16:49:24.372Z,33.90
2017-07-06T16:51:51.856Z,33.60
2017-07-06T16:54:19.592Z,33.40
2017-07-06T16:56:47.049Z,33.20
2017-07-06T16:59:14.504Z,33.20
2017-07-06T17:01:42.280Z,33.20
2017-07-06T17:04:09.718Z,32.90
2017-07-06T17:06:37.184Z,32.50
2017-07-06T17:09:04.840Z,32.40
2017-07-06T17:11:32.304Z,32.00
2017-07-06T17:13:59.784Z,31.60
2017-07-06T17:16:27.449Z,31.30
2017-07-06T17:18:54.925Z,31.10
2017-07-06T17:21:22.428Z,31.00
2017-07-06T17:23:49.993Z,30.90
2017-07-06T17:26:17.413Z,30.80
2017-07-06T17:28:44.848Z,30.80
2017-07-06T17:31:12.277Z,30.60
2017-07-06T17:33:39.741Z,30.60
2017-07-06T17:36:07.197Z,30.50
2017-07-06T17:38:34.640Z,30.40
2017-07-06T17:41:02.091Z,30.10
2017-07-06T17:43:29.654Z,30.00
2017-07-06T17:45:57.408Z,29.80
2017-07-06T17:48:24.866Z,29.80
2017-07-06T17:50:52.330Z,29.60
2017-07-06T17:53:19.965Z,29.50
2017-07-06T17:55:47.420Z,29.30
2017-07-06T17:58:14.918Z,29.30
2017-07-06T18:00:42.461Z,29.20
2017-07-06T18:03:09.918Z,29.10
2017-07-06T18:05:37.368Z,29.00
2017-07-06T18:08:04.980Z,28.90
2017-07-06T18:10:33.589Z,28.70
2017-07-06T18:13:01.018Z,28.70
2017-07-06T18:15:28.641Z,28.70
2017-07-06T18:17:56.090Z,28.60
2017-07-06T18:20:23.608Z,28.60
2017-07-06T18:22:51.042Z,28.50
2017-07-06T18:25:18.489Z,28.40
2017-07-06T18:27:46.023Z,28.20
2017-07-06T18:30:13.630Z,28.10
2017-07-06T18:32:41.221Z,28.10
2017-07-06T18:35:08.698Z,28.10
2017-07-06T18:37:36.312Z,27.90
2017-07-06T18:40:03.900Z,28.00
2017-07-06T18:42:31.345Z,27.90
2017-07-06T18:44:58.807Z,27.80
2017-07-06T18:47:26.265Z,27.80
2017-07-06T18:49:53.715Z,27.70
2017-07-06T18:52:21.142Z,27.80
2017-07-06T18:54:48.582Z,27.80
2017-07-06T18:57:16.047Z,27.70
2017-07-06T18:59:43.537Z,27.50
2017-07-06T19:02:10.993Z,27.50
2017-07-06T19:04:38.450Z,27.50
2017-07-06T19:07:05.905Z,27.50
2017-07-06T19:09:33.342Z,27.50
2017-07-06T19:12:00.817Z,27.40
2017-07-06T19:14:28.253Z,27.50
2017-07-06T19:16:55.742Z,27.50
2017-07-06T19:19:23.174Z,27.50
2017-07-06T19:21:50.609Z,27.40
2017-07-06T19:24:18.115Z,27.30
2017-07-06T19:26:45.560Z,27.10
2017-07-06T19:29:12.991Z,26.90
2017-07-06T19:31:40.425Z,26.70
2017-07-06T19:34:07.949Z,26.60
2017-07-06T19:36:35.689Z,26.70
2017-07-06T19:41:57.236Z,26.60
2017-07-06T19:44:24.671Z,26.60
2017-07-06T19:46:52.096Z,26.50
2017-07-06T19:49:19.517Z,26.50
2017-07-06T19:51:46.949Z,26.40
2017-07-06T19:54:15.138Z,26.20
2017-07-06T19:56:42.578Z,26.20
2017-07-06T19:59:10.001Z,26.10
2017-07-06T20:01:37.440Z,26.00
2017-07-06T20:04:04.861Z,25.90
2017-07-06T20:06:33.066Z,25.80
2017-07-06T20:09:00.777Z,25.80
2017-07-06T20:11:28.189Z,25.70
2017-07-06T20:13:55.617Z,25.60
2017-07-06T20:16:23.819Z,25.50
2017-07-06T20:18:51.239Z,25.50
2017-07-06T20:21:18.679Z,25.50
2017-07-06T20:23:46.101Z,25.40
2017-07-06T20:26:13.516Z,25.40
2017-07-06T20:28:40.952Z,25.40
2017-07-06T20:31:09.177Z,25.30
2017-07-06T20:33:36.619Z,25.30
2017-07-06T20:36:04.094Z,25.30
2017-07-06T20:38:31.853Z,25.20
2017-07-06T20:40:59.277Z,25.20
2017-07-06T20:43:26.742Z,25.10
2017-07-06T20:45:54.184Z,25.10
2017-07-06T20:48:21.672Z,25.10
2017-07-06T20:50:49.098Z,25.10
2017-07-06T20:53:16.528Z,25.10
2017-07-06T20:55:43.949Z,25.10
2017-07-06T20:58:11.396Z,25.10
2017-07-06T21:00:38.823Z,25.00
2017-07-06T21:03:06.249Z,24.90
2017-07-06T21:05:33.681Z,24.90
2017-07-06T21:08:01.106Z,24.90
2017-07-06T21:10:28.536Z,24.80
2017-07-06T21:12:55.952Z,24.80
2017-07-06T21:15:23.384Z,24.70
2017-07-06T21:17:50.813Z,24.70
2017-07-06T21:20:18.599Z,24.70
2017-07-06T21:22:46.024Z,24.60
2017-07-06T21:25:13.449Z,24.60
2017-07-06T21:27:41.197Z,24.50
2017-07-06T21:30:08.625Z,24.50
2017-07-06T21:32:36.049Z,24.40
2017-07-06T21:35:04.255Z,24.40
2017-07-06T21:37:31.688Z,24.40
2017-07-06T21:39:59.116Z,24.40
2017-07-06T21:42:26.549Z,24.40
2017-07-06T21:44:53.977Z,24.50
2017-07-06T21:47:21.412Z,24.40
2017-07-06T21:49:49.004Z,24.30
2017-07-06T21:52:16.765Z,24.20
2017-07-06T21:54:44.199Z,24.20
2017-07-06T21:57:11.626Z,24.00
2017-07-06T21:59:39.457Z,24.00
2017-07-06T22:02:06.877Z,24.00
2017-07-06T22:04:34.297Z,23.90
2017-07-06T22:07:01.732Z,23.90
2017-07-06T22:09:29.164Z,23.80
2017-07-06T22:11:56.606Z,23.80
2017-07-06T22:14:24.030Z,23.80
2017-07-06T22:16:52.244Z,23.70
2017-07-06T22:19:20.540Z,23.70
2017-07-06T22:21:47.968Z,23.80
2017-07-06T22:24:15.410Z,23.70
2017-07-06T22:26:42.850Z,23.70
2017-07-06T22:29:11.055Z,23.70
2017-07-06T22:31:38.478Z,23.60
2017-07-06T22:34:05.912Z,23.70
2017-07-06T22:36:33.338Z,23.70
2017-07-06T22:39:00.773Z,23.70
2017-07-06T22:41:28.213Z,23.60
2017-07-06T22:43:55.662Z,23.60
2017-07-06T22:46:23.090Z,23.50
2017-07-06T22:48:50.533Z,23.50
2017-07-06T22:51:17.957Z,23.40
2017-07-06T22:53:45.389Z,23.30
2017-07-06T22:56:12.831Z,23.30
2017-07-06T22:58:40.253Z,23.30
2017-07-06T23:01:07.694Z,23.30
2017-07-06T23:03:35.122Z,23.30
2017-07-06T23:06:02.561Z,23.30
2017-07-06T23:08:29.986Z,23.40
2017-07-06T23:10:57.422Z,23.30
2017-07-06T23:13:24.854Z,23.30
2017-07-06T23:15:52.293Z,23.30
2017-07-06T23:18:19.717Z,23.30
2017-07-06T23:20:47.401Z,23.10
2017-07-06T23:23:14.830Z,22.90
2017-07-06T23:25:42.488Z,22.90
2017-07-06T23:28:09.904Z,22.80
2017-07-06T23:30:37.325Z,22.80
2017-07-06T23:33:05.531Z,22.60
2017-07-06T23:35:32.961Z,22.60
2017-07-06T23:38:00.412Z,22.40
2017-07-06T23:40:27.818Z,22.10
2017-07-06T23:42:55.266Z,21.90
2017-07-06T23:45:22.702Z,21.70
2017-07-06T23:47:50.226Z,21.60
2017-07-06T23:50:17.649Z,21.50
2017-07-06T23:52:45.097Z,21.50
2017-07-06T23:55:12.558Z,21.50
2017-07-06T23:57:39.991Z,21.50
